Time;durP1;ratioP1;P1;durP2;ratioP2;P2;SDS_P1;SDS_P2;PMS_P1;PMS_P2;Temp;Humidity;BMP_temperature;BMP_pressure;BME280_temperature;BME280_humidity;BME280_pressure;Samples;Min_cycle;Max_cycle;Signal;HPM_P1;HPM_P2
2022/02/27 00:01:13;;;;;;;10.47;6.77;;;;;;;-1.66;100.00;98507.69;4961531;28;20210;-57
2022/02/27 00:03:41;;;;;;;8.60;6.80;;;;;;;-1.68;100.00;98506.91;4926198;28;20217;-51
2022/02/27 00:06:10;;;;;;;19.20;11.97;;;;;;;-1.81;100.00;98514.44;4944094;28;20231;-47
2022/02/27 00:08:38;;;;;;;12.60;8.97;;;;;;;-1.91;100.00;98511.44;4965488;28;21914;-50
2022/02/27 00:11:06;;;;;;;12.00;8.70;;;;;;;-1.95;100.00;98517.69;4944416;28;20678;-52
2022/02/27 00:13:34;;;;;;;12.27;8.20;;;;;;;-1.87;100.00;98512.16;4963947;28;20238;-50
2022/02/27 00:16:04;;;;;;;11.10;6.80;;;;;;;-1.89;100.00;98514.81;4964322;28;20741;-53
2022/02/27 00:18:33;;;;;;;8.97;6.70;;;;;;;-2.09;100.00;98519.16;4963587;28;20249;-50
2022/02/27 00:21:01;;;;;;;10.17;6.70;;;;;;;-1.88;100.00;98515.66;4915292;28;20214;-53
2022/02/27 00:23:30;;;;;;;7.67;6.87;;;;;;;-2.02;100.00;98519.72;4960663;28;20210;-51
2022/02/27 00:25:58;;;;;;;8.40;7.20;;;;;;;-1.95;100.00;98528.09;4947816;28;20901;-51
2022/02/27 00:28:26;;;;;;;9.30;7.10;;;;;;;-1.88;100.00;98518.25;4965354;28;20294;-55
2022/02/27 00:30:54;;;;;;;7.53;6.73;;;;;;;-2.04;100.00;98514.63;4966768;28;20296;-57
2022/02/27 00:33:24;;;;;;;8.53;6.63;;;;;;;-2.21;100.00;98511.94;4961809;28;20249;-50
2022/02/27 00:35:52;;;;;;;8.80;6.63;;;;;;;-2.30;100.00;98486.41;4927924;28;20231;-53
2022/02/27 00:38:20;;;;;;;7.93;6.70;;;;;;;-2.22;100.00;98505.94;4948549;28;20247;-56
2022/02/27 00:40:48;;;;;;;9.40;6.60;;;;;;;-2.16;100.00;98504.78;4964160;28;20297;-51
2022/02/27 00:43:16;;;;;;;7.37;6.37;;;;;;;-2.26;100.00;98504.38;4945068;28;20410;-47
2022/02/27 00:45:45;;;;;;;7.67;6.87;;;;;;;-2.17;100.00;98507.47;4965297;28;20598;-48
2022/02/27 00:48:13;;;;;;;7.83;6.97;;;;;;;-2.35;100.00;98505.66;4962667;28;21195;-54
2022/02/27 00:50:43;;;;;;;8.00;6.37;;;;;;;-2.43;100.00;98483.53;4925640;28;20317;-50
2022/02/27 00:53:16;;;;;;;9.43;6.37;;;;;;;-2.44;100.00;98494.84;4945366;28;20501;-56
2022/02/27 00:55:44;;;;;;;7.80;5.97;;;;;;;-2.45;100.00;98488.81;4967340;28;20646;-50
2022/02/27 00:58:12;;;;;;;7.47;6.73;;;;;;;-2.42;100.00;98493.88;4945790;28;20224;-52
2022/02/27 01:00:40;;;;;;;8.33;6.37;;;;;;;-2.55;100.00;98490.97;4960593;28;20324;-54
2022/02/27 01:03:08;;;;;;;10.37;6.63;;;;;;;-2.48;100.00;98491.53;4962117;28;20216;-52
2022/02/27 01:05:37;;;;;;;8.43;6.87;;;;;;;-2.54;100.00;98487.47;4964269;28;20583;-52
2022/02/27 01:08:07;;;;;;;7.47;5.70;;;;;;;-2.48;100.00;98483.72;4908843;28;20224;-54
2022/02/27 01:10:35;;;;;;;14.97;7.53;;;;;;;-2.53;100.00;98485.69;4961365;28;20234;-50
2022/02/27 01:13:03;;;;;;;10.87;7.33;;;;;;;-2.87;100.00;98493.25;4943909;28;20357;-54
2022/02/27 01:15:31;;;;;;;8.97;6.37;;;;;;;-2.78;100.00;98497.19;4964953;28;20688;-49
2022/02/27 01:17:59;;;;;;;6.73;6.13;;;;;;;-3.03;100.00;98481.84;4967335;28;20269;-52
2022/02/27 01:20:31;;;;;;;9.33;6.57;;;;;;;-3.12;100.00;98486.50;4966744;28;20293;-54
2022/02/27 01:22:59;;;;;;;7.07;6.33;;;;;;;-3.18;100.00;98489.38;4928847;28;20281;-55
2022/02/27 01:25:28;;;;;;;6.30;5.60;;;;;;;-3.25;100.00;98482.78;4968556;28;21884;-51
2022/02/27 01:27:56;;;;;;;7.40;6.30;;;;;;;-3.32;100.00;98482.19;4952212;28;20653;-54
2022/02/27 01:30:25;;;;;;;9.47;6.60;;;;;;;-2.84;100.00;98485.31;4967925;28;20773;-55
2022/02/27 01:32:53;;;;;;;10.50;6.37;;;;;;;-3.08;100.00;98495.00;4965608;28;20291;-49
2022/02/27 01:35:21;;;;;;;7.60;5.90;;;;;;;-3.17;100.00;98490.22;4969846;28;20561;-49
2022/02/27 01:37:49;;;;;;;8.20;7.30;;;;;;;-3.13;100.00;98487.44;4927902;28;20332;-54
2022/02/27 01:40:17;;;;;;;7.70;6.37;;;;;;;-3.19;100.00;98482.50;4960484;28;20586;-50
2022/02/27 01:42:47;;;;;;;8.53;7.10;;;;;;;-3.31;100.00;98478.69;4952547;28;20459;-50
2022/02/27 01:45:15;;;;;;;5.97;5.43;;;;;;;-3.48;100.00;98484.56;4963779;28;20256;-49
2022/02/27 01:47:43;;;;;;;6.70;5.93;;;;;;;-3.40;100.00;98490.28;4969333;28;20210;-52
2022/02/27 01:50:12;;;;;;;5.97;5.33;;;;;;;-3.55;100.00;98490.91;4965274;28;20292;-51
2022/02/27 01:52:40;;;;;;;7.57;6.43;;;;;;;-3.55;100.00;98490.91;4969658;28;20206;-53
2022/02/27 01:55:10;;;;;;;7.13;6.10;;;;;;;-3.34;100.00;98481.41;4920894;28;20873;-56
2022/02/27 01:57:41;;;;;;;8.07;5.53;;;;;;;-3.38;100.00;98475.53;4936350;28;20492;-52
2022/02/27 02:00:12;;;;;;;7.73;6.60;;;;;;;-3.18;100.00;98481.59;4965165;28;20822;-47
2022/02/27 02:02:44;;;;;;;10.10;6.47;;;;;;;-3.10;100.00;98476.09;4968554;28;20205;-53
2022/02/27 02:05:12;;;;;;;8.70;6.10;;;;;;;-2.96;100.00;98481.50;4963876;28;20237;-52
2022/02/27 02:07:41;;;;;;;9.00;7.00;;;;;;;-2.93;100.00;98475.34;4968188;28;20225;-52
2022/02/27 02:10:10;;;;;;;9.47;7.00;;;;;;;-3.08;100.00;98484.66;4924844;28;20250;-52
2022/02/27 02:12:38;;;;;;;8.70;7.20;;;;;;;-3.06;100.00;98480.22;4948251;28;20576;-54
2022/02/27 02:15:08;;;;;;;8.63;7.00;;;;;;;-3.08;100.00;98474.28;4964848;28;20253;-54
2022/02/27 02:17:38;;;;;;;10.50;7.47;;;;;;;-2.95;100.00;98480.59;4007696;28;20233;-52
2022/02/27 02:20:10;;;;;;;10.87;6.27;;;;;;;-3.03;100.00;98469.72;4965624;28;20214;-57
2022/02/27 02:22:38;;;;;;;10.80;7.27;;;;;;;-2.91;100.00;98478.72;4966841;28;20265;-54
2022/02/27 02:25:08;;;;;;;9.63;6.73;;;;;;;-3.04;100.00;98470.63;4923978;28;20229;-56
2022/02/27 02:27:36;;;;;;;9.83;7.10;;;;;;;-3.18;100.00;98466.03;4963147;28;20289;-51
2022/02/27 02:30:09;;;;;;;13.80;7.33;;;;;;;-3.11;100.00;98458.84;4943885;28;20214;-58
2022/02/27 02:32:50;;;;;;;10.07;6.87;;;;;;;-3.21;100.00;98466.16;4969203;28;20293;-52
2022/02/27 02:35:20;;;;;;;11.23;7.33;;;;;;;-3.03;100.00;98467.13;4966038;28;20222;-53
2022/02/27 02:37:48;;;;;;;14.23;7.97;;;;;;;-2.81;100.00;98458.41;4962523;28;20221;-51
2022/02/27 02:40:16;;;;;;;8.07;7.27;;;;;;;-2.85;100.00;98459.44;4925399;28;21137;-52
2022/02/27 02:42:46;;;;;;;9.93;6.90;;;;;;;-2.91;100.00;98461.41;4960975;28;20206;-55
2022/02/27 02:45:15;;;;;;;10.07;7.03;;;;;;;-3.12;100.00;98458.00;4942614;28;21027;-51
2022/02/27 02:47:44;;;;;;;7.93;7.10;;;;;;;-3.09;100.00;98462.22;4966273;28;20519;-56
2022/02/27 02:50:14;;;;;;;9.87;7.20;;;;;;;-3.13;100.00;98458.06;4967596;28;20709;-54
2022/02/27 02:52:43;;;;;;;10.57;7.00;;;;;;;-3.17;100.00;98459.94;4966906;28;20766;-53
2022/02/27 02:55:13;;;;;;;12.10;7.37;;;;;;;-3.27;100.00;98462.09;4922948;28;20752;-51
2022/02/27 02:57:41;;;;;;;7.93;6.47;;;;;;;-3.41;100.00;98454.91;4959592;28;20378;-54
2022/02/27 03:00:12;;;;;;;8.70;6.63;;;;;;;-3.39;100.00;98460.03;4936528;28;20408;-48
2022/02/27 03:02:40;;;;;;;10.70;6.60;;;;;;;-3.50;100.00;98469.09;4969182;28;20210;-53
2022/02/27 03:05:09;;;;;;;9.73;6.47;;;;;;;-3.80;100.00;98471.16;4965905;28;20917;-53
2022/02/27 03:07:39;;;;;;;7.23;5.90;;;;;;;-3.92;100.00;98475.13;4964099;28;20302;-56
2022/02/27 03:10:10;;;;;;;8.33;6.60;;;;;;;-3.73;100.00;98461.41;4961936;28;21036;-50
2022/02/27 03:12:38;;;;;;;6.33;5.80;;;;;;;-3.42;100.00;98466.16;4919041;28;21163;-53
2022/02/27 03:15:08;;;;;;;7.80;6.77;;;;;;;-3.39;100.00;98462.63;4943202;28;20225;-51
2022/02/27 03:17:36;;;;;;;9.93;6.93;;;;;;;-3.45;100.00;98465.47;4966309;28;20321;-54
2022/02/27 03:20:07;;;;;;;10.47;7.13;;;;;;;-3.32;100.00;98465.78;4964028;28;20260;-52
2022/02/27 03:22:35;;;;;;;7.53;6.70;;;;;;;-3.46;100.00;98462.00;4963909;28;20708;-51
2022/02/27 03:25:04;;;;;;;15.37;7.40;;;;;;;-3.66;100.00;98465.44;4962001;28;20603;-49
2022/02/27 03:27:33;;;;;;;13.43;7.47;;;;;;;-3.70;100.00;98451.78;4913334;28;20218;-52
2022/02/27 03:30:01;;;;;;;10.23;8.20;;;;;;;-3.72;100.00;98442.38;4964814;28;20465;-53
2022/02/27 03:32:29;;;;;;;14.13;8.03;;;;;;;-3.54;100.00;98458.91;4944195;28;20220;-48
2022/02/27 03:34:57;;;;;;;9.47;8.50;;;;;;;-3.65;100.00;98448.97;4963617;28;20486;-51
2022/02/27 03:37:26;;;;;;;8.47;7.60;;;;;;;-3.61;100.00;98453.13;4967819;28;20938;-54
2022/02/27 03:39:54;;;;;;;10.23;7.87;;;;;;;-3.39;100.00;98447.06;4963624;28;20866;-52
2022/02/27 03:42:22;;;;;;;11.80;8.10;;;;;;;-3.26;100.00;98440.44;4915619;28;20705;-53
2022/02/27 03:44:52;;;;;;;10.77;8.47;;;;;;;-2.97;100.00;98435.72;4959735;28;20332;-52
2022/02/27 03:47:20;;;;;;;10.03;8.27;;;;;;;-2.74;100.00;98452.03;4943793;28;20464;-52
2022/02/27 03:49:48;;;;;;;9.80;8.10;;;;;;;-2.81;100.00;98441.09;4961967;28;20289;-50
2022/02/27 03:52:17;;;;;;;11.23;8.33;;;;;;;-3.07;100.00;98440.47;4966788;28;20519;-53
2022/02/27 03:54:46;;;;;;;11.87;8.80;;;;;;;-3.06;100.00;98447.34;4960857;28;20320;-50
2022/02/27 03:57:14;;;;;;;9.63;7.83;;;;;;;-3.12;100.00;98445.03;4915903;28;20300;-53
2022/02/27 03:59:42;;;;;;;9.50;7.03;;;;;;;-3.27;100.00;98458.66;4959111;28;20233;-50
2022/02/27 04:02:12;;;;;;;11.70;8.73;;;;;;;-3.00;100.00;98453.19;4936791;28;23493;-55
2022/02/27 04:04:41;;;;;;;12.57;9.03;;;;;;;-2.87;100.00;98451.75;4965312;28;20230;-51
2022/02/27 04:07:09;;;;;;;9.57;7.73;;;;;;;-3.02;100.00;98455.84;4966056;28;20205;-53
2022/02/27 04:09:37;;;;;;;13.13;8.37;;;;;;;-2.76;100.00;98452.09;4962003;28;20912;-51
2022/02/27 04:12:06;;;;;;;13.30;8.53;;;;;;;-2.71;100.00;98440.66;4920451;28;22578;-51
2022/02/27 04:14:34;;;;;;;13.03;9.90;;;;;;;-2.65;100.00;98440.41;4959277;28;20504;-55
2022/02/27 04:17:03;;;;;;;17.33;9.43;;;;;;;-2.64;100.00;98445.50;4961577;28;20741;-49
2022/02/27 04:19:33;;;;;;;8.77;7.37;;;;;;;-2.63;100.00;98443.78;4925392;28;20370;-54
2022/02/27 04:22:01;;;;;;;10.33;8.07;;;;;;;-2.66;100.00;98443.88;4942793;28;20529;-51
2022/02/27 04:24:29;;;;;;;15.00;8.23;;;;;;;-2.76;100.00;98430.50;4923890;28;20231;-48
2022/02/27 04:26:58;;;;;;;10.93;8.57;;;;;;;-2.65;100.00;98451.63;4938179;28;20214;-50
2022/02/27 04:29:26;;;;;;;10.67;7.77;;;;;;;-2.71;100.00;98451.91;4897857;28;20214;-47
2022/02/27 04:31:54;;;;;;;9.53;7.47;;;;;;;-2.76;100.00;98444.31;4917372;28;20211;-49
2022/02/27 04:34:23;;;;;;;12.60;8.90;;;;;;;-2.56;100.00;98444.31;4915566;28;20819;-47
2022/02/27 04:36:52;;;;;;;10.17;8.20;;;;;;;-2.40;100.00;98449.66;4945541;28;20599;-52
2022/02/27 04:39:20;;;;;;;10.37;8.30;;;;;;;-2.45;100.00;98439.50;4946066;28;20249;-50
2022/02/27 04:41:48;;;;;;;11.67;7.53;;;;;;;-2.65;100.00;98440.41;4944514;28;20211;-54
2022/02/27 04:44:16;;;;;;;10.10;8.87;;;;;;;-2.83;100.00;98445.50;4898516;28;20253;-51
2022/02/27 04:46:45;;;;;;;10.50;7.13;;;;;;;-2.89;100.00;98448.38;4940064;28;20580;-49
2022/02/27 04:49:13;;;;;;;9.47;7.20;;;;;;;-2.84;100.00;98448.16;4918075;28;20446;-54
2022/02/27 04:51:41;;;;;;;10.30;8.30;;;;;;;-2.97;100.00;98453.88;4945314;28;20206;-56
2022/02/27 04:54:11;;;;;;;11.63;7.60;;;;;;;-2.96;100.00;98449.56;4947101;28;20206;-57
2022/02/27 04:56:39;;;;;;;8.77;7.77;;;;;;;-3.12;100.00;98451.97;4937261;28;20293;-50
2022/02/27 04:59:07;;;;;;;10.03;7.40;;;;;;;-3.17;100.00;98456.53;4952209;28;20327;-49
2022/02/27 05:01:36;;;;;;;8.07;6.93;;;;;;;-3.27;100.00;98456.91;4904123;28;20218;-53
2022/02/27 05:04:05;;;;;;;8.47;6.57;;;;;;;-3.13;100.00;98453.72;4945319;28;20231;-50
2022/02/27 05:06:33;;;;;;;13.40;8.20;;;;;;;-2.58;100.00;98452.19;4928021;28;20218;-53
2022/02/27 05:09:02;;;;;;;12.53;8.20;;;;;;;-1.99;100.00;98454.66;4948896;28;20663;-52
2022/02/27 05:11:31;;;;;;;7.70;6.90;;;;;;;-1.88;100.00;98453.31;4946126;28;20609;-48
2022/02/27 05:13:59;;;;;;;12.90;7.30;;;;;;;-1.87;100.00;98463.59;4948748;28;20225;-54
2022/02/27 05:16:29;;;;;;;12.47;7.43;;;;;;;-1.88;100.00;98461.94;4899499;28;21130;-51
2022/02/27 05:18:58;;;;;;;10.17;7.60;;;;;;;-1.89;100.00;98457.66;4957977;28;20300;-52
2022/02/27 05:21:26;;;;;;;8.07;7.27;;;;;;;-1.76;100.00;98471.72;4947978;28;20219;-50
2022/02/27 05:23:54;;;;;;;7.87;7.07;;;;;;;-1.71;100.00;98470.66;4967909;28;20540;-51
2022/02/27 05:26:22;;;;;;;9.80;6.63;;;;;;;-1.73;100.00;98475.06;4968734;28;20340;-52
2022/02/27 05:28:51;;;;;;;9.07;7.20;;;;;;;-1.79;100.00;98478.84;4970276;28;20237;-49
2022/02/27 05:31:19;;;;;;;8.97;7.40;;;;;;;-1.79;100.00;98477.06;4927575;28;20220;-51
2022/02/27 05:33:48;;;;;;;11.13;7.67;;;;;;;-1.84;100.00;98479.03;4967433;28;20339;-51
2022/02/27 05:36:16;;;;;;;10.97;7.17;;;;;;;-1.92;100.00;98482.00;4966154;28;20280;-49
2022/02/27 05:38:47;;;;;;;9.77;6.43;;;;;;;-1.89;100.00;98486.22;4950007;28;20505;-52
2022/02/27 05:41:15;;;;;;;13.73;7.80;;;;;;;-1.90;100.00;98484.53;4964513;28;20450;-49
2022/02/27 05:43:43;;;;;;;10.30;7.87;;;;;;;-1.97;100.00;98499.56;4950335;28;20849;-52
2022/02/27 05:46:13;;;;;;;10.40;7.33;;;;;;;-1.95;100.00;98502.09;4931099;28;20237;-50
2022/02/27 05:48:41;;;;;;;9.70;6.33;;;;;;;-1.96;100.00;98505.63;4957790;28;20620;-54
2022/02/27 05:51:09;;;;;;;12.20;7.40;;;;;;;-2.05;100.00;98501.69;4954017;28;20324;-55
2022/02/27 05:53:37;;;;;;;9.70;7.00;;;;;;;-2.09;100.00;98503.56;4944985;28;20593;-51
2022/02/27 05:56:06;;;;;;;9.93;7.77;;;;;;;-2.06;100.00;98506.06;4928031;28;20232;-55
2022/02/27 05:58:35;;;;;;;10.43;7.27;;;;;;;-1.98;100.00;98512.66;4969806;28;20662;-54
2022/02/27 06:01:03;;;;;;;9.90;7.43;;;;;;;-1.93;100.00;98521.88;4908039;28;20700;-47
2022/02/27 06:03:33;;;;;;;10.50;6.77;;;;;;;-1.96;100.00;98527.22;4950201;28;20886;-49
2022/02/27 06:06:01;;;;;;;9.37;8.37;;;;;;;-2.04;100.00;98526.75;4960335;28;20425;-49
2022/02/27 06:08:30;;;;;;;8.60;7.70;;;;;;;-2.05;100.00;98531.13;4952471;28;20810;-46
2022/02/27 06:10:58;;;;;;;10.70;7.67;;;;;;;-2.05;100.00;98528.53;4960905;28;20198;-46
2022/02/27 06:13:26;;;;;;;8.80;7.13;;;;;;;-2.06;100.00;98532.03;4968615;28;20206;-51
2022/02/27 06:15:55;;;;;;;9.03;6.90;;;;;;;-2.05;100.00;98538.06;4931916;28;20816;-50
2022/02/27 06:18:23;;;;;;;11.57;7.23;;;;;;;-2.09;100.00;98539.94;4960822;28;20265;-49
2022/02/27 06:20:52;;;;;;;8.47;7.33;;;;;;;-2.05;100.00;98540.66;4964786;28;20232;-49
2022/02/27 06:23:21;;;;;;;9.13;7.70;;;;;;;-2.00;100.00;98540.44;4949805;28;20213;-52
2022/02/27 06:25:49;;;;;;;8.53;7.43;;;;;;;-2.00;100.00;98541.28;4963303;28;20257;-49
2022/02/27 06:28:17;;;;;;;9.90;7.40;;;;;;;-2.00;100.00;98546.47;4967388;28;20749;-49
2022/02/27 06:30:46;;;;;;;9.10;6.83;;;;;;;-2.00;100.00;98546.47;4952104;28;20249;-48
2022/02/27 06:33:14;;;;;;;11.10;6.90;;;;;;;-1.97;100.00;98551.53;4942506;28;20879;-54
2022/02/27 06:35:42;;;;;;;9.57;7.07;;;;;;;-1.92;100.00;98551.31;4963069;28;20633;-49
2022/02/27 06:38:11;;;;;;;10.43;7.27;;;;;;;-1.80;100.00;98545.53;4962872;28;20399;-48
2022/02/27 06:40:40;;;;;;;10.27;7.37;;;;;;;-1.84;100.00;98564.78;4946523;28;20293;-49
2022/02/27 06:43:08;;;;;;;9.20;8.10;;;;;;;-1.83;100.00;98566.47;4966327;28;20213;-49
2022/02/27 06:45:37;;;;;;;9.70;7.33;;;;;;;-1.73;100.00;98569.50;4966343;28;20233;-54
2022/02/27 06:48:07;;;;;;;8.83;7.37;;;;;;;-1.71;100.00;98570.25;4924929;28;20577;-54
2022/02/27 06:50:35;;;;;;;8.50;7.73;;;;;;;-1.68;100.00;98571.88;4961743;28;20202;-53
2022/02/27 06:53:03;;;;;;;12.00;7.83;;;;;;;-1.69;100.00;98580.59;4964609;28;20213;-51
2022/02/27 06:55:33;;;;;;;9.13;7.67;;;;;;;-1.66;100.00;98576.06;4950683;28;20400;-52
2022/02/27 06:58:01;;;;;;;11.17;7.93;;;;;;;-1.60;100.00;98580.16;4944391;28;20509;-50
2022/02/27 07:00:29;;;;;;;10.87;6.93;;;;;;;-1.57;100.00;98580.00;4964268;28;20832;-50
2022/02/27 07:02:58;;;;;;;10.93;7.23;;;;;;;-1.56;100.00;98581.69;4927046;28;20691;-56
2022/02/27 07:05:29;;;;;;;9.87;7.40;;;;;;;-1.51;100.00;98574.50;4961588;28;20323;-54
2022/02/27 07:07:58;;;;;;;10.30;8.50;;;;;;;-1.55;100.00;98572.97;4965299;28;20744;-49
2022/02/27 07:10:26;;;;;;;11.60;7.97;;;;;;;-1.35;100.00;98581.56;4943373;28;20680;-49
2022/02/27 07:12:55;;;;;;;8.70;7.30;;;;;;;-1.32;100.00;98590.06;4968092;28;20212;-48
2022/02/27 07:15:24;;;;;;;9.50;7.43;;;;;;;-1.28;100.00;98595.97;4964271;28;20226;-49
2022/02/27 07:17:52;;;;;;;9.77;6.93;;;;;;;-1.23;100.00;98604.38;4965362;28;20347;-48
2022/02/27 07:20:20;;;;;;;11.13;8.23;;;;;;;-1.15;100.00;98603.16;4919102;28;20698;-49
2022/02/27 07:22:49;;;;;;;12.37;7.93;;;;;;;-1.06;100.00;98608.78;4960996;28;20237;-51
2022/02/27 07:25:18;;;;;;;9.30;6.80;;;;;;;-0.97;100.00;98614.44;4949076;28;20241;-49
2022/02/27 07:27:46;;;;;;;11.13;7.17;;;;;;;-0.94;100.00;98615.13;4964191;28;20481;-53
2022/02/27 07:30:15;;;;;;;8.07;6.93;;;;;;;-0.86;100.00;98622.53;4966296;28;20210;-51
2022/02/27 07:32:44;;;;;;;10.80;7.67;;;;;;;-0.76;100.00;98623.78;4950005;28;20297;-51
2022/02/27 07:35:12;;;;;;;8.60;7.57;;;;;;;-0.67;100.00;98622.47;4917221;28;20843;-51
2022/02/27 07:37:40;;;;;;;10.00;7.33;;;;;;;-0.52;100.00;98625.22;4955979;28;20216;-50
2022/02/27 07:40:09;;;;;;;7.23;6.53;;;;;;;-0.52;100.00;98622.63;4935559;28;20439;-49
2022/02/27 07:42:38;;;;;;;8.37;7.27;;;;;;;-0.42;100.00;98628.16;4937255;28;20239;-49
2022/02/27 07:45:07;;;;;;;8.57;7.57;;;;;;;-0.36;100.00;98628.72;4962897;28;20240;-49
2022/02/27 07:47:37;;;;;;;7.70;6.90;;;;;;;-0.34;100.00;98632.06;4934378;28;20215;-49
2022/02/27 07:50:06;;;;;;;8.90;7.17;;;;;;;-0.21;100.00;98627.06;4923285;28;20217;-53
2022/02/27 07:52:34;;;;;;;8.67;7.10;;;;;;;-0.23;100.00;98631.53;4966359;28;20332;-46
2022/02/27 07:55:02;;;;;;;8.53;6.57;;;;;;;-0.18;100.00;98628.69;4933595;28;20226;-51
2022/02/27 07:57:30;;;;;;;8.33;6.40;;;;;;;-0.01;100.00;98627.78;4966610;28;20205;-47
2022/02/27 07:59:58;;;;;;;7.63;6.50;;;;;;;0.07;100.00;98627.38;4961614;28;20313;-46
2022/02/27 08:02:28;;;;;;;7.47;6.57;;;;;;;0.18;100.00;98630.22;4953112;28;20224;-54
2022/02/27 08:04:58;;;;;;;6.83;5.90;;;;;;;0.36;100.00;98638.00;4905986;28;25032;-53
2022/02/27 08:07:26;;;;;;;8.97;6.57;;;;;;;0.42;100.00;98630.69;4963342;28;20210;-54
2022/02/27 08:09:54;;;;;;;7.00;6.30;;;;;;;0.43;100.00;98629.78;4948525;28;20246;-49
2022/02/27 08:12:23;;;;;;;8.40;6.60;;;;;;;0.62;100.00;98627.91;4944893;28;20210;-49
2022/02/27 08:14:51;;;;;;;11.43;7.13;;;;;;;0.60;100.00;98625.38;4958895;28;20344;-52
2022/02/27 08:17:19;;;;;;;7.70;6.90;;;;;;;0.83;100.00;98618.88;4942235;28;20317;-50
2022/02/27 08:19:48;;;;;;;10.43;8.10;;;;;;;0.92;100.00;98617.50;4932363;28;20607;-51
2022/02/27 08:22:19;;;;;;;9.37;7.23;;;;;;;1.10;100.00;98618.22;4925346;28;20273;-52
2022/02/27 08:24:47;;;;;;;7.53;6.73;;;;;;;1.06;100.00;98615.88;4959757;28;20226;-56
2022/02/27 08:27:15;;;;;;;8.37;7.57;;;;;;;1.17;100.00;98620.47;4948013;28;20228;-47
2022/02/27 08:29:44;;;;;;;7.70;6.53;;;;;;;1.35;100.00;98615.94;4961086;28;20723;-50
2022/02/27 08:32:13;;;;;;;9.73;6.70;;;;;;;1.34;100.00;98617.72;4965707;28;20646;-52
2022/02/27 08:34:41;;;;;;;9.10;6.80;;;;;;;1.54;100.00;98623.53;4930090;28;20229;-49
2022/02/27 08:37:09;;;;;;;7.47;6.43;;;;;;;1.71;100.00;98623.38;4921247;28;20224;-50
2022/02/27 08:39:40;;;;;;;10.23;6.67;;;;;;;1.67;100.00;98627.09;4955507;28;20479;-52
2022/02/27 08:42:08;;;;;;;7.27;6.50;;;;;;;1.68;100.00;98634.00;4962802;28;20260;-48
2022/02/27 08:44:38;;;;;;;8.80;6.07;;;;;;;1.76;100.00;98627.50;4940616;28;20334;-56
2022/02/27 08:47:07;;;;;;;11.23;6.33;;;;;;;1.66;100.00;98637.66;4963343;28;20338;-52
2022/02/27 08:49:35;;;;;;;6.67;5.90;;;;;;;1.68;100.00;98631.38;4931961;28;21031;-50
2022/02/27 08:52:04;;;;;;;6.37;5.77;;;;;;;1.09;100.00;98637.44;4965857;28;20205;-49
2022/02/27 08:54:32;;;;;;;7.50;6.17;;;;;;;0.94;100.00;98641.75;4911285;28;20233;-49
2022/02/27 08:57:02;;;;;;;7.03;6.03;;;;;;;0.95;100.00;98647.81;4966736;28;20742;-51
2022/02/27 08:59:30;;;;;;;7.90;6.17;;;;;;;1.23;100.00;98641.00;4944698;28;20280;-51
2022/02/27 09:01:58;;;;;;;6.73;6.13;;;;;;;1.64;100.00;98640.34;4961871;28;20758;-50
2022/02/27 09:04:26;;;;;;;8.60;6.27;;;;;;;1.48;100.00;98648.25;4955644;28;20221;-53
2022/02/27 09:06:55;;;;;;;5.90;5.30;;;;;;;1.49;100.00;98643.88;4938730;28;20226;-50
2022/02/27 09:09:23;;;;;;;7.40;5.73;;;;;;;1.48;100.00;98647.41;4919365;28;20697;-50
2022/02/27 09:11:52;;;;;;;5.80;5.03;;;;;;;1.35;100.00;98636.84;4961266;28;20293;-51
2022/02/27 09:14:21;;;;;;;5.97;5.40;;;;;;;1.56;100.00;98634.72;4949037;28;20316;-50
2022/02/27 09:16:49;;;;;;;8.07;6.77;;;;;;;1.89;100.00;98644.09;4965494;28;20214;-52
2022/02/27 09:19:18;;;;;;;5.97;5.37;;;;;;;2.17;100.00;98640.63;4965569;28;20233;-51
2022/02/27 09:21:46;;;;;;;6.27;5.67;;;;;;;2.19;100.00;98631.84;4929470;28;20401;-47
2022/02/27 09:24:14;;;;;;;5.23;4.77;;;;;;;2.16;100.00;98633.72;4922104;28;20260;-50
2022/02/27 09:26:45;;;;;;;5.83;5.33;;;;;;;1.95;100.00;98621.97;4954119;28;20346;-55
2022/02/27 09:29:13;;;;;;;5.73;5.13;;;;;;;1.79;100.00;98615.06;4949371;28;21158;-52
2022/02/27 09:31:43;;;;;;;7.60;5.63;;;;;;;2.00;100.00;98618.13;4961899;28;20747;-52
2022/02/27 09:34:12;;;;;;;11.57;5.30;;;;;;;2.17;100.00;98624.94;4965893;28;20293;-52
2022/02/27 09:36:40;;;;;;;5.70;5.13;;;;;;;2.42;100.00;98614.72;4927214;28;20877;-47
2022/02/27 09:39:09;;;;;;;5.60;4.87;;;;;;;2.25;100.00;98623.63;4970083;28;20263;-51
2022/02/27 09:41:37;;;;;;;6.40;4.87;;;;;;;2.19;100.00;98616.16;4916185;28;21026;-51
2022/02/27 09:44:06;;;;;;;8.17;6.87;;;;;;;2.22;100.00;98608.97;4943443;28;20730;-52
2022/02/27 09:46:36;;;;;;;5.70;5.13;;;;;;;2.64;100.00;98606.34;4949089;28;20216;-57
2022/02/27 09:49:07;;;;;;;5.20;4.70;;;;;;;2.78;100.00;98602.81;4965164;28;20824;-50
2022/02/27 09:51:35;;;;;;;6.20;4.87;;;;;;;2.68;100.00;98588.66;4922570;28;20700;-50
2022/02/27 09:54:03;;;;;;;4.73;4.33;;;;;;;2.67;100.00;98600.94;4956759;28;20311;-50
2022/02/27 09:56:31;;;;;;;5.20;4.30;;;;;;;2.81;100.00;98594.78;4896536;28;20309;-50
2022/02/27 09:58:59;;;;;;;5.10;4.70;;;;;;;2.62;100.00;98592.50;4962800;28;20201;-48
2022/02/27 10:01:28;;;;;;;5.70;5.10;;;;;;;2.53;100.00;98590.50;4947504;28;20209;-50
2022/02/27 10:03:57;;;;;;;4.97;4.40;;;;;;;2.49;100.00;98586.38;4961777;28;20206;-48
2022/02/27 10:06:27;;;;;;;5.07;4.50;;;;;;;2.53;100.00;98586.09;4946769;28;20213;-45
2022/02/27 10:08:56;;;;;;;6.93;4.93;;;;;;;2.78;100.00;98574.03;4949062;28;20212;-48
2022/02/27 10:11:25;;;;;;;6.47;4.50;;;;;;;2.92;100.00;98582.78;4922033;28;20503;-52
2022/02/27 10:13:55;;;;;;;6.53;4.73;;;;;;;3.13;100.00;98581.34;4963961;28;20305;-47
2022/02/27 10:16:24;;;;;;;7.07;4.67;;;;;;;3.28;100.00;98582.09;4946938;28;20765;-49
2022/02/27 10:18:54;;;;;;;5.60;4.73;;;;;;;3.10;100.00;98580.72;4964485;28;20347;-48
2022/02/27 10:21:24;;;;;;;4.80;4.40;;;;;;;3.24;100.00;98583.25;4950158;28;20236;-51
2022/02/27 10:24:15;;;;;;;4.43;4.10;;;;;;;3.31;100.00;98588.94;4947357;28;20714;-49
2022/02/27 10:26:45;;;;;;;4.80;4.30;;;;;;;3.46;100.00;98587.88;4925330;28;20627;-49
2022/02/27 10:29:15;;;;;;;5.17;4.63;;;;;;;3.34;100.00;98580.84;4958257;28;20216;-51
2022/02/27 10:31:45;;;;;;;6.10;4.87;;;;;;;3.42;100.00;98582.97;4946957;28;20223;-51
2022/02/27 10:34:18;;;;;;;5.70;5.20;;;;;;;3.42;100.00;98565.44;4964340;28;20682;-48
2022/02/27 10:37:00;;;;;;;4.97;4.00;;;;;;;3.35;100.00;98569.44;4967521;28;20616;-49
2022/02/27 10:39:43;;;;;;;4.60;4.30;;;;;;;3.55;100.00;98568.06;4951742;28;20292;-54
2022/02/27 10:42:16;;;;;;;5.77;5.27;;;;;;;3.45;100.00;98569.66;4920187;28;20472;-52
2022/02/27 10:44:45;;;;;;;6.13;5.53;;;;;;;3.40;100.00;98577.81;4954535;28;21017;-51
2022/02/27 10:47:16;;;;;;;5.87;5.37;;;;;;;3.52;100.00;98568.28;4944355;28;20305;-49
2022/02/27 10:49:46;;;;;;;6.63;5.20;;;;;;;3.48;100.00;98574.69;4966546;28;20216;-49
2022/02/27 10:52:20;;;;;;;5.50;5.10;;;;;;;3.59;100.00;98563.44;4962474;28;20482;-51
2022/02/27 10:54:51;;;;;;;5.27;4.80;;;;;;;3.54;100.00;98562.94;4949550;28;20353;-49
2022/02/27 10:57:33;;;;;;;4.50;4.13;;;;;;;3.64;100.00;98560.50;4921401;28;22739;-50
2022/02/27 11:00:12;;;;;;;5.57;4.17;;;;;;;3.74;100.00;98557.16;4959008;28;20646;-51
2022/02/27 11:02:41;;;;;;;5.40;4.70;;;;;;;3.68;100.00;98551.50;4966716;28;20345;-49
2022/02/27 11:05:13;;;;;;;5.37;4.87;;;;;;;3.66;100.00;98538.50;4948234;28;20233;-54
2022/02/27 11:07:43;;;;;;;5.03;4.43;;;;;;;3.39;100.00;98542.09;4964590;28;20206;-55
2022/02/27 11:10:16;;;;;;;5.00;4.50;;;;;;;3.41;100.00;98549.81;4949135;28;20447;-47
2022/02/27 11:12:44;;;;;;;6.33;4.60;;;;;;;3.67;100.00;98541.97;4923498;28;20698;-53
2022/02/27 11:15:14;;;;;;;5.40;4.17;;;;;;;3.66;100.00;98535.88;4960954;28;20248;-51
2022/02/27 11:17:43;;;;;;;4.47;4.17;;;;;;;3.73;100.00;98531.88;4942699;28;20688;-54
2022/02/27 11:20:14;;;;;;;4.47;4.07;;;;;;;3.89;100.00;98529.03;4937747;28;20209;-51
2022/02/27 11:22:43;;;;;;;5.73;5.00;;;;;;;3.90;100.00;98527.22;4963475;28;20329;-52
2022/02/27 11:25:16;;;;;;;4.03;3.73;;;;;;;4.12;100.00;98525.72;4931197;28;20238;-48
2022/02/27 11:27:48;;;;;;;4.60;4.20;;;;;;;4.13;100.00;98525.59;4897305;28;20936;-50
2022/02/27 11:30:20;;;;;;;6.77;5.07;;;;;;;4.13;100.00;98522.16;4954324;28;20210;-49
2022/02/27 11:32:51;;;;;;;6.33;4.30;;;;;;;3.81;100.00;98527.88;4961943;28;20238;-48